HTCK1: Cow Creek near Hutchinson, KS

Data processed at Sat Aug 18 2018 23:19


All information presented herein is the property of the government of the United States of America and may be revised or deleted at any time without prior notice.
Dissemination of this information without the expressed written consent of the Public Affairs Office, Tulsa District U.S. Army Corps of Engineers is strictly prohibited.
These data are gathered electronically and, as presented, have not undergone any form of quality control. These data are not guaranteed to be valid or correct.
Go to home page.
Go to station list.

Upstream stations:

Downstream station:
Previous Day
Next Day
Current Day
    
SHEF ID:       HTCK1     COW C NR HUTCHINSON, KS
STATION TYPE:  

               PRECIP     STAGE  RIV-FLOW  BAT-LOAD
                   in        ft       cfs      volt
              Ccp-Rev   Ccp-Rev   Ccp-Rev   Ccp-Rev
(US/Central)
08/18 00:00      0.00      4.94       207     12.73
08/18 01:00      0.00      4.92       204     12.65
08/18 02:00      0.00      4.89       200     12.65
08/18 03:00      0.00      4.84       194     12.65
08/18 04:00      0.00      4.82       191     12.65
08/18 05:00      0.00      4.79       188     12.57
08/18 06:00      0.00      4.75       183     12.57
08/18 07:00      0.00      4.70       177     12.57
08/18 08:00      0.00      4.67       173     12.57
08/18 09:00      0.00      4.62       167     12.65
08/18 10:00      0.00      4.58       162     12.97
08/18 11:00      0.00      4.52       156     13.05
08/18 12:00      0.00      4.46       149     13.13
08/18 13:00      0.00      4.42       144     13.29
08/18 14:00      0.00      4.37       139     13.37
08/18 15:00      0.00      4.33       135     13.21
08/18 16:00      0.00      4.27       129     13.05
08/18 17:00      0.00      4.21       122     12.81
08/18 18:00      0.00      4.17       118     12.97
08/18 19:00      0.00      4.10       112     12.89
08/18 20:00      0.00      4.06       108     12.81
08/18 21:00      0.00      4.01       103     12.73
08/18 22:00      0.00      3.97       100     12.73
08/18 23:00      ----      ----      ----      ----